Time;durP1;ratioP1;P1;durP2;ratioP2;P2;SDS_P1;SDS_P2;PMS_P1;PMS_P2;Temp;Humidity;BMP_temperature;BMP_pressure;BME280_temperature;BME280_humidity;BME280_pressure;Samples;Min_cycle;Max_cycle;Signal;HPM_P1;HPM_P2
2023/04/09 00:00:37;;;;;;;15.80;10.80;;;7.10;99.90;;;;;;5091223;28;20420;-68
2023/04/09 00:03:03;;;;;;;14.53;11.03;;;6.90;99.90;;;;;;5091097;28;20858;-68
2023/04/09 00:05:28;;;;;;;13.77;11.60;;;6.90;99.90;;;;;;5089729;28;20218;-68
2023/04/09 00:07:54;;;;;;;14.33;10.67;;;6.80;99.90;;;;;;5090400;28;20238;-68
2023/04/09 00:10:20;;;;;;;15.20;11.17;;;6.80;99.90;;;;;;5091328;28;20596;-68
2023/04/09 00:12:45;;;;;;;14.47;11.30;;;6.90;99.90;;;;;;5091032;28;20206;-69
2023/04/09 00:15:11;;;;;;;14.50;10.90;;;7.00;99.90;;;;;;5090907;28;20218;-68
2023/04/09 00:17:37;;;;;;;15.87;10.73;;;7.00;99.90;;;;;;5090813;28;20597;-68
2023/04/09 00:20:03;;;;;;;16.03;10.90;;;6.90;99.90;;;;;;5090745;28;20178;-68
2023/04/09 00:22:29;;;;;;;14.00;11.33;;;6.90;99.90;;;;;;5089225;28;20257;-68
2023/04/09 00:24:54;;;;;;;15.10;10.93;;;6.90;99.90;;;;;;5090470;28;20550;-68
2023/04/09 00:27:20;;;;;;;13.13;10.60;;;6.90;99.90;;;;;;5090742;28;20454;-68
2023/04/09 00:29:46;;;;;;;16.70;11.60;;;6.90;99.90;;;;;;5090520;28;20187;-68
2023/04/09 00:32:12;;;;;;;16.00;12.03;;;6.90;99.90;;;;;;5088985;28;20255;-68
2023/04/09 00:34:38;;;;;;;16.43;11.83;;;7.00;99.90;;;;;;5090586;28;20420;-68
2023/04/09 00:37:04;;;;;;;17.43;12.40;;;7.00;99.90;;;;;;5090353;28;20507;-68
2023/04/09 00:39:30;;;;;;;15.37;11.60;;;7.00;99.90;;;;;;5090479;28;20179;-68
2023/04/09 00:42:01;;;;;;;16.03;11.07;;;7.00;99.90;;;;;;5090531;28;20440;-67
2023/04/09 00:44:27;;;;;;;13.30;11.40;;;7.00;99.90;;;;;;5088777;28;20183;-68
2023/04/09 00:46:54;;;;;;;15.77;11.90;;;7.00;99.90;;;;;;5088651;28;20928;-67
2023/04/09 00:49:20;;;;;;;14.17;11.53;;;6.90;99.90;;;;;;5090402;28;20178;-67
2023/04/09 00:51:47;;;;;;;14.63;10.87;;;6.90;99.90;;;;;;5090064;28;20438;-67
2023/04/09 00:54:13;;;;;;;17.63;12.63;;;6.80;99.90;;;;;;5090247;28;20442;-68
2023/04/09 00:56:39;;;;;;;14.80;11.40;;;6.80;99.90;;;;;;5090045;28;20420;-68
2023/04/09 00:59:05;;;;;;;14.77;11.90;;;6.80;99.90;;;;;;5090029;28;20507;-68
2023/04/09 01:01:30;;;;;;;14.67;11.60;;;6.80;99.90;;;;;;5088228;28;20511;-68
2023/04/09 01:03:56;;;;;;;15.57;11.23;;;6.80;99.90;;;;;;5089911;28;20913;-68
2023/04/09 01:06:46;;;;;;;14.27;11.57;;;6.80;99.90;;;;;;5089817;28;20332;-68
2023/04/09 01:09:29;;;;;;;16.73;12.33;;;6.80;99.90;;;;;;5090383;28;20423;-68
2023/04/09 01:12:20;;;;;;;17.67;12.27;;;6.80;99.90;;;;;;5089920;28;20515;-67
2023/04/09 01:15:07;;;;;;;15.10;11.93;;;6.80;99.90;;;;;;5090046;28;20427;-68
2023/04/09 01:17:45;;;;;;;18.90;13.40;;;6.80;99.90;;;;;;5088376;28;20481;-67
2023/04/09 01:20:21;;;;;;;15.60;12.43;;;6.80;99.90;;;;;;5087261;28;20432;-67
2023/04/09 01:23:24;;;;;;;18.03;13.37;;;6.80;99.90;;;;;;5089576;28;20444;-68
2023/04/09 01:26:14;;;;;;;16.73;12.60;;;6.80;99.90;;;;;;5089543;28;20490;-68
2023/04/09 01:28:45;;;;;;;16.30;11.30;;;6.80;99.90;;;;;;5089462;28;20412;-67
2023/04/09 01:31:14;;;;;;;15.80;12.23;;;6.80;99.90;;;;;;5087982;28;20420;-68
2023/04/09 01:33:44;;;;;;;14.90;10.87;;;6.70;99.90;;;;;;5087722;28;20421;-68
2023/04/09 01:36:10;;;;;;;16.07;12.40;;;6.60;99.90;;;;;;5087828;28;20415;-68
2023/04/09 01:38:39;;;;;;;14.63;12.23;;;6.50;99.90;;;;;;5089074;28;20455;-67
2023/04/09 01:41:15;;;;;;;16.63;12.33;;;6.50;99.90;;;;;;5106242;27;20574;-68
2023/04/09 01:43:42;;;;;;;15.30;11.80;;;6.50;99.90;;;;;;5086114;28;20437;-68
2023/04/09 01:46:09;;;;;;;16.80;12.30;;;6.50;99.90;;;;;;5085683;28;20981;-68
2023/04/09 01:48:36;;;;;;;16.20;11.70;;;6.60;99.90;;;;;;5085648;28;20435;-68
2023/04/09 01:51:01;;;;;;;13.53;11.50;;;6.60;99.90;;;;;;5085632;28;20421;-68
2023/04/09 01:53:27;;;;;;;20.90;13.00;;;6.70;99.90;;;;;;5085549;28;20455;-68
2023/04/09 01:55:58;;;;;;;15.33;11.67;;;6.70;99.90;;;;;;5085665;28;20178;-68
2023/04/09 01:58:24;;;;;;;15.93;12.70;;;6.70;99.90;;;;;;5085424;28;20191;-68
2023/04/09 02:00:57;;;;;;;18.77;12.27;;;6.70;99.90;;;;;;5085612;28;21062;-67
2023/04/09 02:03:50;;;;;;;18.13;13.00;;;6.80;99.90;;;;;;5100765;28;20432;-68
2023/04/09 02:06:33;;;;;;;14.50;12.27;;;6.80;99.90;;;;;;5085476;28;20413;-68
2023/04/09 02:09:01;;;;;;;16.77;13.03;;;6.80;99.90;;;;;;5085380;28;20507;-67
2023/04/09 02:11:28;;;;;;;17.80;14.03;;;6.80;99.90;;;;;;5085159;28;20449;-67
2023/04/09 02:14:07;;;;;;;22.57;14.07;;;6.80;99.90;;;;;;5085194;28;20416;-68
2023/04/09 02:16:35;;;;;;;19.23;14.53;;;6.80;99.90;;;;;;5083778;28;20416;-68
2023/04/09 02:19:00;;;;;;;18.33;13.60;;;6.90;99.90;;;;;;5085047;28;20449;-68
2023/04/09 02:21:27;;;;;;;18.13;13.37;;;6.90;99.90;;;;;;5085061;28;20454;-68
2023/04/09 02:23:54;;;;;;;16.60;12.37;;;6.90;99.90;;;;;;5085082;28;20659;-68
2023/04/09 02:26:20;;;;;;;18.77;12.67;;;6.90;99.90;;;;;;5085105;28;20428;-68
2023/04/09 02:28:46;;;;;;;23.70;14.27;;;6.80;99.90;;;;;;5084899;28;20466;-68
2023/04/09 02:31:12;;;;;;;17.23;13.30;;;6.80;99.90;;;;;;5084870;28;20920;-68
2023/04/09 02:33:37;;;;;;;19.00;12.80;;;6.70;99.90;;;;;;5084832;28;20208;-68
2023/04/09 02:36:04;;;;;;;21.57;13.90;;;6.80;99.90;;;;;;5083257;28;20187;-68
2023/04/09 02:38:30;;;;;;;19.03;13.60;;;6.70;99.90;;;;;;5084823;28;20678;-68
2023/04/09 02:40:56;;;;;;;20.20;13.60;;;6.80;99.90;;;;;;5084571;28;20468;-68
2023/04/09 02:43:21;;;;;;;22.17;13.50;;;6.80;99.90;;;;;;5084743;28;20444;-68
2023/04/09 02:45:47;;;;;;;23.63;14.90;;;6.80;99.90;;;;;;5084632;28;20191;-68
2023/04/09 02:48:13;;;;;;;17.30;12.90;;;6.80;99.90;;;;;;5084674;28;20337;-68
2023/04/09 02:50:38;;;;;;;17.83;12.80;;;6.80;99.90;;;;;;5081925;28;20559;-68
2023/04/09 02:53:04;;;;;;;14.50;12.13;;;6.90;99.90;;;;;;5069530;28;20294;-68
2023/04/09 02:55:30;;;;;;;19.00;13.60;;;6.80;99.90;;;;;;5071383;28;20582;-68
2023/04/09 02:57:55;;;;;;;16.73;12.77;;;6.80;99.90;;;;;;5071211;28;20437;-68
2023/04/09 03:00:21;;;;;;;22.13;13.00;;;6.80;99.90;;;;;;5070921;28;20210;-68
2023/04/09 03:02:47;;;;;;;21.17;14.07;;;6.80;99.90;;;;;;5070870;28;20249;-68
2023/04/09 03:05:12;;;;;;;17.73;13.30;;;6.70;99.90;;;;;;5071278;28;20183;-68
2023/04/09 03:07:38;;;;;;;15.80;12.73;;;6.70;99.90;;;;;;5071170;28;20270;-68
2023/04/09 03:10:04;;;;;;;19.80;13.30;;;6.60;99.90;;;;;;5070990;28;20198;-69
2023/04/09 03:12:29;;;;;;;16.13;12.47;;;6.60;99.90;;;;;;5069269;28;20203;-68
2023/04/09 03:14:55;;;;;;;18.27;13.00;;;6.60;99.90;;;;;;5070807;28;20446;-69
2023/04/09 03:17:21;;;;;;;17.20;13.43;;;6.60;99.90;;;;;;5070756;28;20222;-68
2023/04/09 03:19:46;;;;;;;18.50;12.70;;;6.60;99.90;;;;;;5070637;28;20214;-68
2023/04/09 03:22:12;;;;;;;26.23;14.47;;;6.60;99.90;;;;;;5070719;28;20203;-69
2023/04/09 03:24:37;;;;;;;18.50;13.27;;;6.60;99.90;;;;;;5070515;28;20190;-68
2023/04/09 03:27:03;;;;;;;18.23;13.53;;;6.60;99.90;;;;;;5070545;28;20187;-69
2023/04/09 03:29:29;;;;;;;17.57;13.17;;;6.70;99.90;;;;;;5070737;28;20198;-69
2023/04/09 03:31:54;;;;;;;18.37;13.07;;;6.60;99.90;;;;;;5070608;28;20195;-68
2023/04/09 03:34:20;;;;;;;18.63;13.27;;;6.70;99.90;;;;;;5069820;28;20421;-68
2023/04/09 03:36:45;;;;;;;17.20;13.13;;;6.50;99.90;;;;;;5071068;28;20188;-68
2023/04/09 03:39:11;;;;;;;18.80;12.37;;;6.60;99.90;;;;;;5070743;28;20218;-69
2023/04/09 03:41:37;;;;;;;16.87;12.93;;;6.60;99.90;;;;;;5070887;28;20747;-68
2023/04/09 03:44:02;;;;;;;18.07;13.17;;;6.60;99.90;;;;;;5071172;28;20179;-69
2023/04/09 03:46:28;;;;;;;17.80;12.97;;;6.70;99.90;;;;;;5070978;28;20219;-68
2023/04/09 03:48:53;;;;;;;17.90;12.93;;;6.70;99.90;;;;;;5070893;28;20641;-68
2023/04/09 03:51:19;;;;;;;16.40;12.60;;;6.60;99.90;;;;;;5070753;28;20181;-68
2023/04/09 03:53:45;;;;;;;21.33;14.30;;;6.70;99.90;;;;;;5068972;28;20179;-69
2023/04/09 03:56:10;;;;;;;17.83;13.13;;;6.50;99.90;;;;;;5068564;28;20244;-68
2023/04/09 03:58:36;;;;;;;18.63;13.70;;;6.50;99.90;;;;;;5068889;28;20278;-69
2023/04/09 04:01:02;;;;;;;19.07;13.50;;;6.60;99.90;;;;;;5069897;28;20242;-68
2023/04/09 04:03:28;;;;;;;19.30;14.40;;;6.60;99.90;;;;;;5068752;28;20460;-68
2023/04/09 04:05:58;;;;;;;19.87;13.67;;;6.50;99.90;;;;;;5069757;28;20924;-69
2023/04/09 04:08:24;;;;;;;20.63;14.90;;;6.50;99.90;;;;;;5069703;28;20194;-69
2023/04/09 04:10:49;;;;;;;17.60;13.90;;;6.50;99.90;;;;;;5068179;28;20441;-69
2023/04/09 04:13:15;;;;;;;20.07;14.30;;;6.50;99.90;;;;;;5069542;28;20207;-69
2023/04/09 04:15:41;;;;;;;19.70;14.40;;;6.50;99.90;;;;;;5069415;28;20559;-68
2023/04/09 04:18:07;;;;;;;18.63;13.43;;;6.40;99.90;;;;;;5069821;28;20542;-68
2023/04/09 04:20:33;;;;;;;18.97;13.93;;;6.40;99.90;;;;;;5069346;28;20465;-68
2023/04/09 04:22:59;;;;;;;19.97;13.90;;;6.40;99.90;;;;;;5069241;28;20647;-68
2023/04/09 04:25:24;;;;;;;16.07;12.77;;;6.40;99.90;;;;;;5069361;28;20182;-68
2023/04/09 04:27:50;;;;;;;19.63;13.90;;;6.40;99.90;;;;;;5067943;28;20655;-68
2023/04/09 04:30:16;;;;;;;19.63;14.33;;;6.50;99.90;;;;;;5069381;28;20202;-68
2023/04/09 04:32:41;;;;;;;23.33;12.80;;;6.40;99.90;;;;;;5069109;28;20674;-68
2023/04/09 04:35:07;;;;;;;18.93;13.57;;;6.40;99.90;;;;;;5067525;28;20191;-68
2023/04/09 04:37:33;;;;;;;18.07;13.00;;;6.30;99.90;;;;;;5069092;28;20183;-68
2023/04/09 04:40:04;;;;;;;19.07;13.70;;;6.30;99.90;;;;;;5067251;28;20476;-68
2023/04/09 04:42:29;;;;;;;18.23;13.40;;;6.20;99.90;;;;;;5068893;28;20203;-68
2023/04/09 04:44:55;;;;;;;19.77;13.63;;;6.20;99.90;;;;;;5069377;28;20468;-68
2023/04/09 04:47:21;;;;;;;17.07;13.77;;;6.20;99.90;;;;;;5068896;28;20245;-68
2023/04/09 04:49:46;;;;;;;18.40;13.13;;;6.10;99.90;;;;;;5068920;28;20556;-68
2023/04/09 04:52:12;;;;;;;16.07;12.33;;;6.10;99.90;;;;;;5068908;28;20685;-68
2023/04/09 04:54:37;;;;;;;18.10;13.77;;;6.10;99.90;;;;;;5068910;28;20712;-67
2023/04/09 04:57:03;;;;;;;16.83;12.87;;;6.20;99.90;;;;;;5068837;28;20670;-67
2023/04/09 04:59:29;;;;;;;17.43;12.23;;;6.10;99.90;;;;;;5068804;28;20207;-67
2023/04/09 05:01:54;;;;;;;23.23;13.00;;;6.10;99.90;;;;;;5069278;28;20290;-68
2023/04/09 05:04:20;;;;;;;21.00;15.10;;;6.10;99.90;;;;;;5069283;28;20190;-68
2023/04/09 05:06:45;;;;;;;18.40;13.47;;;6.10;99.90;;;;;;5069218;28;20178;-68
2023/04/09 05:09:11;;;;;;;18.30;12.77;;;6.10;99.90;;;;;;5068760;28;20180;-68
2023/04/09 05:11:37;;;;;;;18.47;13.80;;;6.10;99.90;;;;;;5067195;28;20199;-68
2023/04/09 05:14:03;;;;;;;15.87;12.77;;;6.00;99.90;;;;;;5068589;28;20183;-68
2023/04/09 05:16:29;;;;;;;20.53;13.93;;;6.00;99.90;;;;;;5067633;28;20205;-68
2023/04/09 05:18:55;;;;;;;18.43;13.53;;;5.80;99.90;;;;;;5068973;28;20456;-68
2023/04/09 05:21:20;;;;;;;18.87;13.77;;;5.90;99.90;;;;;;5069074;28;20422;-69
2023/04/09 05:23:46;;;;;;;19.30;13.50;;;5.90;99.90;;;;;;5068891;28;20697;-69
2023/04/09 05:26:12;;;;;;;18.27;14.10;;;6.00;99.90;;;;;;5069106;28;20193;-68
2023/04/09 05:28:37;;;;;;;28.03;16.90;;;6.10;99.90;;;;;;5069098;28;20248;-69
2023/04/09 05:31:03;;;;;;;22.77;14.43;;;6.20;99.90;;;;;;5069233;28;20183;-68
2023/04/09 05:33:29;;;;;;;20.63;13.93;;;6.20;99.90;;;;;;5068946;28;20206;-69
2023/04/09 05:35:55;;;;;;;19.77;14.33;;;6.20;99.90;;;;;;5069016;28;20183;-69
2023/04/09 05:38:20;;;;;;;22.47;15.17;;;6.20;99.90;;;;;;5068593;28;20442;-69
2023/04/09 05:40:47;;;;;;;18.03;13.47;;;6.30;99.90;;;;;;5068176;28;20277;-69
2023/04/09 05:43:13;;;;;;;17.10;13.17;;;6.40;99.90;;;;;;5068244;28;20202;-68
2023/04/09 05:45:39;;;;;;;18.77;13.70;;;6.60;99.90;;;;;;5068363;28;20413;-68
2023/04/09 05:48:05;;;;;;;18.37;14.23;;;6.70;99.90;;;;;;5066991;28;20538;-68
2023/04/09 05:50:30;;;;;;;18.43;13.87;;;6.90;99.90;;;;;;5068079;28;20425;-68
2023/04/09 05:52:56;;;;;;;23.30;14.87;;;7.00;99.90;;;;;;5066783;28;20232;-69
2023/04/09 05:55:21;;;;;;;19.07;14.00;;;7.10;99.90;;;;;;5068366;28;20508;-69
2023/04/09 05:57:47;;;;;;;19.67;15.03;;;7.30;99.90;;;;;;5068217;28;20190;-68
2023/04/09 06:00:14;;;;;;;21.70;14.83;;;7.40;99.90;;;;;;5066542;28;20226;-68
2023/04/09 06:02:40;;;;;;;20.40;15.07;;;7.60;99.90;;;;;;5068345;28;20737;-68
2023/04/09 06:05:05;;;;;;;19.80;15.60;;;7.60;99.90;;;;;;5068470;28;20429;-69
2023/04/09 06:07:31;;;;;;;19.37;13.63;;;7.90;99.90;;;;;;5068316;28;20505;-69
2023/04/09 06:09:57;;;;;;;19.27;15.07;;;8.00;99.90;;;;;;5068137;28;20516;-69
2023/04/09 06:12:22;;;;;;;19.40;14.30;;;8.00;99.90;;;;;;5068105;28;20233;-69
2023/04/09 06:14:48;;;;;;;19.10;14.90;;;8.00;99.90;;;;;;5068565;28;20183;-69
2023/04/09 06:17:14;;;;;;;21.23;14.20;;;8.20;99.90;;;;;;5068919;28;20304;-69
2023/04/09 06:19:39;;;;;;;16.60;12.80;;;8.50;99.90;;;;;;5069004;28;20206;-69
2023/04/09 06:22:05;;;;;;;18.07;13.90;;;8.70;99.90;;;;;;5068669;28;21449;-69
2023/04/09 06:24:32;;;;;;;18.50;12.67;;;9.00;99.90;;;;;;5067327;28;20553;-68
2023/04/09 06:26:57;;;;;;;17.10;12.93;;;9.20;99.90;;;;;;5069270;28;20187;-69
2023/04/09 06:29:23;;;;;;;16.20;11.40;;;9.30;99.90;;;;;;5072129;28;20421;-69
2023/04/09 06:31:48;;;;;;;18.50;12.30;;;9.50;99.90;;;;;;5071990;28;20268;-68
2023/04/09 06:34:14;;;;;;;19.07;14.17;;;9.70;99.90;;;;;;5072140;28;20202;-69
2023/04/09 06:36:40;;;;;;;17.07;13.37;;;10.00;99.90;;;;;;5072110;28;20728;-69
2023/04/09 06:39:06;;;;;;;18.17;14.03;;;10.10;99.90;;;;;;5071640;28;20191;-69
2023/04/09 06:41:32;;;;;;;16.47;13.43;;;10.10;99.90;;;;;;5070067;28;20233;-69
2023/04/09 06:43:58;;;;;;;17.93;12.90;;;10.40;99.90;;;;;;5071321;28;20425;-69
2023/04/09 06:46:24;;;;;;;16.90;12.80;;;10.60;99.90;;;;;;5071281;28;20183;-69
2023/04/09 06:48:49;;;;;;;14.63;12.07;;;10.80;99.90;;;;;;5071388;28;20423;-68
2023/04/09 06:51:15;;;;;;;14.00;12.10;;;10.90;99.90;;;;;;5069765;28;20546;-70
2023/04/09 06:53:41;;;;;;;18.77;12.30;;;11.10;99.90;;;;;;5070148;28;20745;-70
2023/04/09 06:56:07;;;;;;;14.43;11.60;;;11.10;99.90;;;;;;5071720;28;20214;-69
2023/04/09 06:58:32;;;;;;;15.53;12.30;;;11.20;99.90;;;;;;5071216;28;20418;-68
2023/04/09 07:00:59;;;;;;;14.13;11.93;;;11.20;99.90;;;;;;5071012;28;20198;-69
2023/04/09 07:03:26;;;;;;;16.60;12.27;;;11.00;99.90;;;;;;5071120;28;20508;-69
2023/04/09 07:05:53;;;;;;;14.50;10.97;;;11.20;99.90;;;;;;5069862;28;20832;-69
2023/04/09 07:08:19;;;;;;;20.20;12.73;;;11.20;99.90;;;;;;5069383;28;20442;-67
2023/04/09 07:10:46;;;;;;;16.30;12.10;;;11.10;99.90;;;;;;5070944;28;20471;-68
2023/04/09 07:13:12;;;;;;;15.97;12.00;;;11.30;99.90;;;;;;5069095;28;20819;-67
2023/04/09 07:15:37;;;;;;;15.33;12.23;;;11.20;99.90;;;;;;5070734;28;20487;-67
2023/04/09 07:18:03;;;;;;;13.07;11.40;;;10.80;99.90;;;;;;5070778;28;20413;-67
2023/04/09 07:20:28;;;;;;;13.77;11.33;;;11.00;99.90;;;;;;5070643;28;20207;-70
2023/04/09 07:22:54;;;;;;;13.57;10.77;;;11.30;99.90;;;;;;5069053;28;20261;-67
2023/04/09 07:25:20;;;;;;;12.33;10.60;;;11.30;99.90;;;;;;5070551;28;20181;-68
2023/04/09 07:27:46;;;;;;;15.67;11.77;;;11.30;99.90;;;;;;5070586;28;20278;-67
2023/04/09 07:30:11;;;;;;;18.90;13.37;;;11.50;99.90;;;;;;5070611;28;20424;-67
2023/04/09 07:32:37;;;;;;;12.30;10.40;;;11.50;99.90;;;;;;5069060;28;20235;-67
2023/04/09 07:35:08;;;;;;;13.57;11.20;;;11.70;99.90;;;;;;5070435;28;20866;-67
2023/04/09 07:37:34;;;;;;;13.73;10.90;;;11.70;99.30;;;;;;5070512;28;20187;-67
2023/04/09 07:40:00;;;;;;;14.17;12.10;;;11.90;99.30;;;;;;5068846;28;20482;-67
2023/04/09 07:42:27;;;;;;;15.37;11.70;;;12.20;99.10;;;;;;5070151;28;20443;-67
2023/04/09 07:44:52;;;;;;;14.47;10.83;;;12.20;99.00;;;;;;5070272;28;20777;-67
2023/04/09 07:47:18;;;;;;;12.50;10.97;;;12.30;99.20;;;;;;5070164;28;20480;-67
2023/04/09 07:49:43;;;;;;;12.93;10.87;;;12.30;98.10;;;;;;5070290;28;20190;-67
2023/04/09 07:52:09;;;;;;;13.80;10.00;;;12.50;97.60;;;;;;5070152;28;20209;-68
2023/04/09 07:54:35;;;;;;;11.20;9.00;;;12.10;94.00;;;;;;5068482;28;20211;-67
2023/04/09 07:57:01;;;;;;;12.83;10.17;;;12.40;95.10;;;;;;5069989;28;20719;-67
2023/04/09 07:59:26;;;;;;;11.87;9.43;;;12.40;92.80;;;;;;5070072;28;20554;-67
2023/04/09 08:01:52;;;;;;;13.60;9.73;;;12.20;91.10;;;;;;5068229;28;20652;-67
2023/04/09 08:04:18;;;;;;;12.70;9.80;;;11.80;92.70;;;;;;5068597;28;20580;-67
2023/04/09 08:06:48;;;;;;;10.27;8.70;;;11.40;93.10;;;;;;5066861;28;20564;-67
2023/04/09 08:09:14;;;;;;;10.13;7.97;;;11.10;92.40;;;;;;5068370;28;20180;-67
2023/04/09 08:11:40;;;;;;;12.07;9.47;;;11.00;91.60;;;;;;5068197;28;20434;-67
2023/04/09 08:14:06;;;;;;;10.47;8.77;;;11.10;92.30;;;;;;5066661;28;20824;-67
2023/04/09 08:16:31;;;;;;;13.20;8.60;;;11.40;92.70;;;;;;5068059;28;20272;-66
2023/04/09 08:18:57;;;;;;;11.20;9.07;;;11.70;92.00;;;;;;5068084;28;20179;-66
2023/04/09 08:21:23;;;;;;;11.83;8.40;;;11.90;92.20;;;;;;5067906;28;20220;-67
2023/04/09 08:23:48;;;;;;;10.27;8.30;;;12.00;89.60;;;;;;5068201;28;20184;-71
2023/04/09 08:26:14;;;;;;;11.37;8.77;;;11.50;90.30;;;;;;5068365;28;20185;-70
2023/04/09 08:28:40;;;;;;;10.40;9.00;;;11.50;90.10;;;;;;5066556;28;20265;-68
2023/04/09 08:31:08;;;;;;;9.73;8.53;;;11.70;90.80;;;;;;5067729;28;20773;-69
2023/04/09 08:33:34;;;;;;;9.83;8.33;;;11.70;87.30;;;;;;5067674;28;20447;-68
2023/04/09 08:36:00;;;;;;;8.87;7.97;;;11.70;87.80;;;;;;5049651;28;20429;-69
2023/04/09 08:38:26;;;;;;;9.70;7.77;;;11.70;86.90;;;;;;5066439;28;20444;-69
2023/04/09 08:40:51;;;;;;;8.77;7.57;;;12.10;88.10;;;;;;5065967;28;20551;-69
2023/04/09 08:43:21;;;;;;;8.60;7.50;;;12.30;85.10;;;;;;5067480;28;20502;-69
2023/04/09 08:45:47;;;;;;;8.20;7.40;;;12.10;83.20;;;;;;5067862;28;20174;-69
2023/04/09 08:48:12;;;;;;;7.80;6.90;;;12.10;85.20;;;;;;5049803;28;20995;-69
2023/04/09 08:50:38;;;;;;;9.27;7.73;;;12.30;83.00;;;;;;5067388;28;20942;-69
2023/04/09 08:53:05;;;;;;;12.30;8.80;;;12.30;84.10;;;;;;5067868;28;20340;-70
2023/04/09 08:55:36;;;;;;;9.07;8.07;;;12.80;86.30;;;;;;5067574;28;20228;-69
2023/04/09 08:58:09;;;;;;;9.87;8.30;;;13.10;81.50;;;;;;5082691;28;20435;-69
2023/04/09 09:00:35;;;;;;;9.27;7.97;;;12.90;79.20;;;;;;5067721;28;20469;-69
2023/04/09 09:03:05;;;;;;;12.77;9.40;;;12.30;80.30;;;;;;5066390;28;20446;-69
2023/04/09 09:05:43;;;;;;;9.57;8.33;;;11.70;84.20;;;;;;5067831;28;20416;-69
2023/04/09 09:08:10;;;;;;;13.50;8.80;;;11.70;86.50;;;;;;5067789;28;20471;-69
2023/04/09 09:10:41;;;;;;;9.67;8.37;;;11.60;86.50;;;;;;5067470;28;20458;-69
2023/04/09 09:13:26;;;;;;;10.27;8.27;;;11.50;86.30;;;;;;5067537;28;20440;-69
2023/04/09 09:15:55;;;;;;;7.83;7.07;;;11.40;89.20;;;;;;5066331;28;20983;-68
2023/04/09 09:18:41;;;;;;;8.00;7.20;;;11.60;85.60;;;;;;5067458;28;20421;-69
2023/04/09 09:21:14;;;;;;;9.70;8.63;;;11.70;83.40;;;;;;5067304;28;20532;-70
2023/04/09 09:23:41;;;;;;;9.20;7.33;;;11.40;82.90;;;;;;5067406;28;20513;-69
2023/04/09 09:26:20;;;;;;;9.60;7.80;;;11.10;87.10;;;;;;5067289;28;20415;-70
2023/04/09 09:28:47;;;;;;;9.90;7.77;;;10.80;83.30;;;;;;5066352;28;20452;-69
2023/04/09 09:31:13;;;;;;;11.03;8.10;;;10.70;86.10;;;;;;5068061;28;20419;-69
2023/04/09 09:33:40;;;;;;;8.77;7.13;;;10.70;85.70;;;;;;5067616;28;20524;-69
2023/04/09 09:36:08;;;;;;;13.17;8.17;;;11.90;85.60;;;;;;5067719;28;20424;-69
2023/04/09 09:38:49;;;;;;;9.90;8.00;;;13.40;83.20;;;;;;5067463;28;20417;-69
2023/04/09 09:41:18;;;;;;;9.33;8.33;;;14.30;80.20;;;;;;5067364;28;20884;-69
2023/04/09 09:43:44;;;;;;;9.27;7.43;;;14.80;75.10;;;;;;5065702;28;20523;-69
2023/04/09 09:46:10;;;;;;;9.03;8.07;;;14.50;70.90;;;;;;5067392;28;20415;-69
2023/04/09 09:48:36;;;;;;;9.77;8.10;;;14.40;71.90;;;;;;5067684;28;20413;-69
2023/04/09 09:51:08;;;;;;;8.50;7.70;;;14.10;70.00;;;;;;5067535;28;20997;-69
2023/04/09 09:53:36;;;;;;;8.60;7.27;;;14.90;71.40;;;;;;5067617;28;20478;-69
2023/04/09 09:56:04;;;;;;;7.83;7.03;;;14.70;67.90;;;;;;5066458;28;20482;-70
2023/04/09 09:58:40;;;;;;;8.80;7.77;;;14.10;67.90;;;;;;5067151;28;20422;-70
2023/04/09 10:01:12;;;;;;;9.50;8.47;;;13.70;70.50;;;;;;5068483;28;20922;-69
2023/04/09 10:03:39;;;;;;;8.20;7.03;;;13.40;75.30;;;;;;5071498;28;20511;-69
2023/04/09 10:06:08;;;;;;;7.67;6.90;;;12.80;72.50;;;;;;5071090;28;20469;-69
2023/04/09 10:08:36;;;;;;;8.40;7.50;;;12.60;71.80;;;;;;5070849;28;20439;-69
2023/04/09 10:11:04;;;;;;;6.80;6.20;;;12.40;73.20;;;;;;5071342;28;20416;-69
2023/04/09 10:13:35;;;;;;;7.93;6.70;;;13.10;71.30;;;;;;5069341;28;20444;-69
2023/04/09 10:16:01;;;;;;;8.97;6.90;;;13.20;67.90;;;;;;5070739;28;20877;-69
2023/04/09 10:18:29;;;;;;;8.27;7.37;;;13.60;71.10;;;;;;5070512;28;20502;-69
2023/04/09 10:21:02;;;;;;;8.33;7.17;;;13.80;69.40;;;;;;5070146;28;20475;-69
2023/04/09 10:23:43;;;;;;;8.60;7.30;;;13.60;68.00;;;;;;5070224;28;20444;-69
2023/04/09 10:26:09;;;;;;;9.40;8.40;;;13.70;69.80;;;;;;5070104;28;20424;-69
2023/04/09 10:28:37;;;;;;;8.30;7.50;;;13.50;70.70;;;;;;5070129;28;20418;-69
2023/04/09 10:31:05;;;;;;;8.90;8.00;;;13.40;71.00;;;;;;5070379;28;20420;-69
2023/04/09 10:33:31;;;;;;;7.83;7.03;;;13.20;71.40;;;;;;5068356;28;20824;-69
2023/04/09 10:36:08;;;;;;;8.23;7.40;;;12.80;70.60;;;;;;5069971;28;20432;-69
2023/04/09 10:38:37;;;;;;;7.63;6.60;;;12.70;70.70;;;;;;5070082;28;20813;-70
2023/04/09 10:41:21;;;;;;;9.60;7.40;;;12.50;72.90;;;;;;5069687;28;21033;-70
2023/04/09 10:43:47;;;;;;;7.83;7.03;;;12.30;71.60;;;;;;5069992;28;20414;-71
2023/04/09 10:46:35;;;;;;;8.63;7.60;;;12.40;72.80;;;;;;5070031;28;20404;-70
2023/04/09 10:49:14;;;;;;;8.63;7.60;;;12.40;73.80;;;;;;5069804;28;20414;-69
2023/04/09 10:51:40;;;;;;;7.87;7.03;;;12.30;71.70;;;;;;5069665;28;20822;-69
2023/04/09 10:54:32;;;;;;;8.83;7.00;;;12.30;73.30;;;;;;5084960;28;20432;-69
2023/04/09 10:57:07;;;;;;;7.23;6.53;;;12.50;74.50;;;;;;5068056;28;20939;-70
2023/04/09 10:59:42;;;;;;;8.03;5.97;;;13.80;71.10;;;;;;5069831;28;20545;-69
2023/04/09 11:02:12;;;;;;;7.77;6.57;;;14.20;64.30;;;;;;5069535;28;20475;-70
2023/04/09 11:05:05;;;;;;;7.03;6.13;;;13.60;64.00;;;;;;5069539;28;20421;-70
2023/04/09 11:07:34;;;;;;;8.00;6.00;;;13.50;65.80;;;;;;5069984;28;20416;-70
2023/04/09 11:09:59;;;;;;;6.20;5.57;;;12.70;66.00;;;;;;5069629;28;20923;-70
2023/04/09 11:12:25;;;;;;;6.47;5.83;;;12.30;65.80;;;;;;5067453;28;20450;-69
2023/04/09 11:14:51;;;;;;;6.17;5.57;;;12.60;67.50;;;;;;5069437;28;20580;-70
2023/04/09 11:17:18;;;;;;;6.33;5.57;;;12.90;65.50;;;;;;5068129;28;20706;-70
2023/04/09 11:19:44;;;;;;;7.70;6.73;;;13.10;70.00;;;;;;5069927;28;20201;-70
2023/04/09 11:22:09;;;;;;;6.90;5.70;;;13.10;67.40;;;;;;5069336;28;20440;-70
2023/04/09 11:24:42;;;;;;;6.80;6.10;;;13.80;67.20;;;;;;5069411;28;20649;-71
2023/04/09 11:27:08;;;;;;;10.80;6.47;;;15.20;64.90;;;;;;5068212;28;20232;-71
2023/04/09 11:29:35;;;;;;;7.07;5.90;;;16.10;61.60;;;;;;5070013;28;20511;-70
2023/04/09 11:32:04;;;;;;;7.30;6.30;;;16.00;58.70;;;;;;5069614;28;20614;-71
2023/04/09 11:34:32;;;;;;;6.10;5.50;;;15.70;59.40;;;;;;5069405;28;20427;-70
2023/04/09 11:36:58;;;;;;;5.53;5.03;;;16.20;58.70;;;;;;5069552;28;20933;-70
2023/04/09 11:39:27;;;;;;;5.80;5.20;;;16.40;56.90;;;;;;5069045;28;20514;-71
2023/04/09 11:41:53;;;;;;;8.10;5.73;;;16.30;58.10;;;;;;5069295;28;20468;-70
2023/04/09 11:44:20;;;;;;;7.20;6.50;;;16.20;59.00;;;;;;5069271;28;20912;-71
2023/04/09 11:46:47;;;;;;;8.17;6.90;;;16.10;58.70;;;;;;5068961;28;20183;-71
2023/04/09 11:49:13;;;;;;;7.17;6.47;;;16.10;58.00;;;;;;5067388;28;20413;-70
2023/04/09 11:51:39;;;;;;;5.57;5.07;;;16.70;56.30;;;;;;5069025;28;20440;-71
2023/04/09 11:54:05;;;;;;;5.80;5.30;;;17.60;55.30;;;;;;5068659;28;20430;-71
2023/04/09 11:56:31;;;;;;;5.60;4.93;;;18.30;54.20;;;;;;5068636;28;20202;-71
2023/04/09 11:58:58;;;;;;;6.70;5.80;;;18.70;52.60;;;;;;5068674;28;20501;-70
2023/04/09 12:01:23;;;;;;;6.70;5.70;;;18.50;51.30;;;;;;5068348;28;21290;-71
2023/04/09 12:03:53;;;;;;;6.47;5.87;;;18.20;50.70;;;;;;5068605;28;20415;-71
2023/04/09 12:06:23;;;;;;;6.43;5.77;;;18.70;52.10;;;;;;5084098;28;20866;-71
2023/04/09 12:08:53;;;;;;;6.07;5.27;;;18.60;52.40;;;;;;5084019;28;20428;-70
2023/04/09 12:11:19;;;;;;;6.90;5.93;;;18.00;46.60;;;;;;5068740;28;20876;-71
2023/04/09 12:13:45;;;;;;;7.43;6.00;;;17.50;48.30;;;;;;5068843;28;20421;-70
2023/04/09 12:16:11;;;;;;;6.87;6.17;;;16.00;48.50;;;;;;5068549;28;20182;-69
2023/04/09 12:18:37;;;;;;;7.47;6.40;;;16.20;50.80;;;;;;5066707;28;20476;-69
2023/04/09 12:21:03;;;;;;;7.27;6.53;;;15.70;50.10;;;;;;5068177;28;20466;-69
2023/04/09 12:23:32;;;;;;;5.80;5.20;;;15.60;51.80;;;;;;5068016;28;20508;-68
2023/04/09 12:26:01;;;;;;;5.97;5.40;;;15.30;51.00;;;;;;5068685;28;20421;-72
2023/04/09 12:28:27;;;;;;;5.60;5.10;;;15.30;51.80;;;;;;5068448;28;20417;-69
2023/04/09 12:30:53;;;;;;;6.77;4.87;;;15.10;52.50;;;;;;5068445;28;20413;-69
2023/04/09 12:33:20;;;;;;;5.77;5.27;;;14.60;51.30;;;;;;5068213;28;20440;-69
2023/04/09 12:35:46;;;;;;;7.80;6.33;;;14.30;52.20;;;;;;5050122;28;21027;-70
2023/04/09 12:38:11;;;;;;;6.30;5.60;;;14.00;52.70;;;;;;5068659;28;20508;-71
2023/04/09 12:40:38;;;;;;;6.00;5.27;;;14.20;54.00;;;;;;5068213;28;20508;-71